sensor_id;sensor_type;location;lat;lon;timestamp;temperature;humidity
15262;DHT22;7733;51.554;13.590;2024-01-30T00:02:23;3.80;99.90
15262;DHT22;7733;51.554;13.590;2024-01-30T00:04:48;3.70;99.90
15262;DHT22;7733;51.554;13.590;2024-01-30T00:07:14;3.80;99.90
15262;DHT22;7733;51.554;13.590;2024-01-30T00:09:40;3.80;99.90
15262;DHT22;7733;51.554;13.590;2024-01-30T00:12:06;3.70;99.90
15262;DHT22;7733;51.554;13.590;2024-01-30T00:14:32;3.70;99.90
15262;DHT22;7733;51.554;13.590;2024-01-30T00:16:58;3.70;99.90
15262;DHT22;7733;51.554;13.590;2024-01-30T00:19:24;3.80;99.90
15262;DHT22;7733;51.554;13.590;2024-01-30T00:21:50;3.80;99.90
15262;DHT22;7733;51.554;13.590;2024-01-30T00:24:15;3.80;99.90
15262;DHT22;7733;51.554;13.590;2024-01-30T00:26:41;3.70;99.90
15262;DHT22;7733;51.554;13.590;2024-01-30T00:29:07;3.80;99.90
15262;DHT22;7733;51.554;13.590;2024-01-30T00:31:32;3.90;99.90
15262;DHT22;7733;51.554;13.590;2024-01-30T00:33:58;3.80;99.90
15262;DHT22;7733;51.554;13.590;2024-01-30T00:36:24;3.70;99.90
15262;DHT22;7733;51.554;13.590;2024-01-30T00:38:50;3.90;99.90
15262;DHT22;7733;51.554;13.590;2024-01-30T00:41:18;3.70;99.90
15262;DHT22;7733;51.554;13.590;2024-01-30T00:43:44;3.70;99.90
15262;DHT22;7733;51.554;13.590;2024-01-30T00:46:10;3.60;99.90
15262;DHT22;7733;51.554;13.590;2024-01-30T00:48:36;3.60;99.90
15262;DHT22;7733;51.554;13.590;2024-01-30T00:51:01;3.40;99.90
15262;DHT22;7733;51.554;13.590;2024-01-30T00:53:27;3.40;99.90
15262;DHT22;7733;51.554;13.590;2024-01-30T00:55:53;3.50;99.90
15262;DHT22;7733;51.554;13.590;2024-01-30T00:58:19;3.40;99.90
15262;DHT22;7733;51.554;13.590;2024-01-30T01:00:45;3.40;99.90
15262;DHT22;7733;51.554;13.590;2024-01-30T01:03:10;3.40;99.90
15262;DHT22;7733;51.554;13.590;2024-01-30T01:05:36;3.30;99.90
15262;DHT22;7733;51.554;13.590;2024-01-30T01:08:02;3.30;99.90
15262;DHT22;7733;51.554;13.590;2024-01-30T01:10:27;3.20;99.90
15262;DHT22;7733;51.554;13.590;2024-01-30T01:12:54;3.30;99.90
15262;DHT22;7733;51.554;13.590;2024-01-30T01:15:19;3.30;99.90
15262;DHT22;7733;51.554;13.590;2024-01-30T01:17:45;3.30;99.90
15262;DHT22;7733;51.554;13.590;2024-01-30T01:20:11;3.30;99.90
15262;DHT22;7733;51.554;13.590;2024-01-30T01:22:37;3.40;99.90
15262;DHT22;7733;51.554;13.590;2024-01-30T01:25:04;3.30;99.90
15262;DHT22;7733;51.554;13.590;2024-01-30T01:27:33;3.30;99.90
15262;DHT22;7733;51.554;13.590;2024-01-30T01:30:00;3.40;99.90
15262;DHT22;7733;51.554;13.590;2024-01-30T01:32:26;3.40;99.90
15262;DHT22;7733;51.554;13.590;2024-01-30T01:34:51;3.50;99.90
15262;DHT22;7733;51.554;13.590;2024-01-30T01:37:18;3.50;99.90
15262;DHT22;7733;51.554;13.590;2024-01-30T01:39:47;3.40;99.90
15262;DHT22;7733;51.554;13.590;2024-01-30T01:42:13;3.40;99.90
15262;DHT22;7733;51.554;13.590;2024-01-30T01:44:38;3.40;99.90
15262;DHT22;7733;51.554;13.590;2024-01-30T01:47:04;3.40;99.90
15262;DHT22;7733;51.554;13.590;2024-01-30T01:49:30;3.40;99.90
15262;DHT22;7733;51.554;13.590;2024-01-30T01:51:56;3.40;99.90
15262;DHT22;7733;51.554;13.590;2024-01-30T01:54:24;3.40;99.90
15262;DHT22;7733;51.554;13.590;2024-01-30T01:56:52;3.40;99.90
15262;DHT22;7733;51.554;13.590;2024-01-30T01:59:20;3.40;99.90
15262;DHT22;7733;51.554;13.590;2024-01-30T02:01:46;3.40;99.90
15262;DHT22;7733;51.554;13.590;2024-01-30T02:04:15;3.50;99.90
15262;DHT22;7733;51.554;13.590;2024-01-30T02:06:41;3.40;99.90
15262;DHT22;7733;51.554;13.590;2024-01-30T02:09:09;3.40;99.90
15262;DHT22;7733;51.554;13.590;2024-01-30T02:11:35;3.50;99.90
15262;DHT22;7733;51.554;13.590;2024-01-30T02:14:04;3.50;99.90
15262;DHT22;7733;51.554;13.590;2024-01-30T02:16:31;3.50;99.90
15262;DHT22;7733;51.554;13.590;2024-01-30T02:18:57;3.50;99.90
15262;DHT22;7733;51.554;13.590;2024-01-30T02:21:23;3.50;99.90
15262;DHT22;7733;51.554;13.590;2024-01-30T02:23:50;3.50;99.90
15262;DHT22;7733;51.554;13.590;2024-01-30T02:26:20;3.50;99.90
15262;DHT22;7733;51.554;13.590;2024-01-30T02:28:45;3.40;99.90
15262;DHT22;7733;51.554;13.590;2024-01-30T02:31:11;3.40;99.90
15262;DHT22;7733;51.554;13.590;2024-01-30T02:33:37;3.40;99.90
15262;DHT22;7733;51.554;13.590;2024-01-30T02:36:03;3.60;99.90
15262;DHT22;7733;51.554;13.590;2024-01-30T02:38:28;3.70;99.90
15262;DHT22;7733;51.554;13.590;2024-01-30T02:40:54;3.70;99.90
15262;DHT22;7733;51.554;13.590;2024-01-30T02:43:21;3.60;99.90
15262;DHT22;7733;51.554;13.590;2024-01-30T02:45:47;3.60;99.90
15262;DHT22;7733;51.554;13.590;2024-01-30T02:48:13;3.50;99.90
15262;DHT22;7733;51.554;13.590;2024-01-30T02:50:38;3.50;99.90
15262;DHT22;7733;51.554;13.590;2024-01-30T02:53:04;3.60;99.90
15262;DHT22;7733;51.554;13.590;2024-01-30T02:55:30;3.50;99.90
15262;DHT22;7733;51.554;13.590;2024-01-30T02:57:56;3.40;99.90
15262;DHT22;7733;51.554;13.590;2024-01-30T03:00:21;3.50;99.90
15262;DHT22;7733;51.554;13.590;2024-01-30T03:02:47;3.50;99.90
15262;DHT22;7733;51.554;13.590;2024-01-30T03:05:13;3.50;99.90
15262;DHT22;7733;51.554;13.590;2024-01-30T03:07:38;3.40;99.90
15262;DHT22;7733;51.554;13.590;2024-01-30T03:10:05;3.40;99.90
15262;DHT22;7733;51.554;13.590;2024-01-30T03:12:31;3.30;99.90
15262;DHT22;7733;51.554;13.590;2024-01-30T03:14:57;3.40;99.90
15262;DHT22;7733;51.554;13.590;2024-01-30T03:17:23;3.30;99.90
15262;DHT22;7733;51.554;13.590;2024-01-30T03:19:49;3.30;99.90
15262;DHT22;7733;51.554;13.590;2024-01-30T03:22:16;3.40;99.90
15262;DHT22;7733;51.554;13.590;2024-01-30T03:24:42;3.40;99.90
15262;DHT22;7733;51.554;13.590;2024-01-30T03:27:08;3.30;99.90
15262;DHT22;7733;51.554;13.590;2024-01-30T03:29:35;3.50;99.90
15262;DHT22;7733;51.554;13.590;2024-01-30T03:32:01;3.30;99.90
15262;DHT22;7733;51.554;13.590;2024-01-30T03:34:27;3.30;99.90
15262;DHT22;7733;51.554;13.590;2024-01-30T03:36:53;3.40;99.90
15262;DHT22;7733;51.554;13.590;2024-01-30T03:39:18;3.50;99.90
15262;DHT22;7733;51.554;13.590;2024-01-30T03:41:44;3.40;99.90
15262;DHT22;7733;51.554;13.590;2024-01-30T03:44:10;3.40;99.90
15262;DHT22;7733;51.554;13.590;2024-01-30T03:46:36;3.30;99.90
15262;DHT22;7733;51.554;13.590;2024-01-30T03:49:02;3.20;99.90
15262;DHT22;7733;51.554;13.590;2024-01-30T03:51:28;3.30;99.90
15262;DHT22;7733;51.554;13.590;2024-01-30T03:53:54;3.40;99.90
15262;DHT22;7733;51.554;13.590;2024-01-30T03:56:20;3.30;99.90
15262;DHT22;7733;51.554;13.590;2024-01-30T03:58:45;3.40;99.90
15262;DHT22;7733;51.554;13.590;2024-01-30T04:01:15;3.30;99.90
15262;DHT22;7733;51.554;13.590;2024-01-30T04:03:41;3.30;99.90
15262;DHT22;7733;51.554;13.590;2024-01-30T04:06:08;3.30;99.90
15262;DHT22;7733;51.554;13.590;2024-01-30T04:08:34;3.30;99.90
15262;DHT22;7733;51.554;13.590;2024-01-30T04:11:05;3.30;99.90
15262;DHT22;7733;51.554;13.590;2024-01-30T04:13:32;3.30;99.90
15262;DHT22;7733;51.554;13.590;2024-01-30T04:15:59;3.30;99.90
15262;DHT22;7733;51.554;13.590;2024-01-30T04:18:29;3.30;99.90
15262;DHT22;7733;51.554;13.590;2024-01-30T04:20:55;3.20;99.90
15262;DHT22;7733;51.554;13.590;2024-01-30T04:23:21;3.10;99.90
15262;DHT22;7733;51.554;13.590;2024-01-30T04:25:47;3.10;99.90
15262;DHT22;7733;51.554;13.590;2024-01-30T04:28:12;3.10;99.90
15262;DHT22;7733;51.554;13.590;2024-01-30T04:30:38;3.00;99.90
15262;DHT22;7733;51.554;13.590;2024-01-30T04:33:04;3.00;99.90
15262;DHT22;7733;51.554;13.590;2024-01-30T04:35:30;3.10;99.90
15262;DHT22;7733;51.554;13.590;2024-01-30T04:37:56;3.10;99.90
15262;DHT22;7733;51.554;13.590;2024-01-30T04:40:22;3.00;99.90
15262;DHT22;7733;51.554;13.590;2024-01-30T04:42:48;3.00;99.90
15262;DHT22;7733;51.554;13.590;2024-01-30T04:45:14;3.00;99.90
15262;DHT22;7733;51.554;13.590;2024-01-30T04:47:40;3.10;99.90
15262;DHT22;7733;51.554;13.590;2024-01-30T04:50:07;3.00;99.90
15262;DHT22;7733;51.554;13.590;2024-01-30T04:52:34;2.90;99.90
15262;DHT22;7733;51.554;13.590;2024-01-30T04:54:59;2.90;99.90
15262;DHT22;7733;51.554;13.590;2024-01-30T04:57:25;2.90;99.90
15262;DHT22;7733;51.554;13.590;2024-01-30T04:59:51;2.90;99.90
15262;DHT22;7733;51.554;13.590;2024-01-30T05:02:17;2.90;99.90
15262;DHT22;7733;51.554;13.590;2024-01-30T05:04:43;3.00;99.90
15262;DHT22;7733;51.554;13.590;2024-01-30T05:07:08;3.00;99.90
15262;DHT22;7733;51.554;13.590;2024-01-30T05:09:34;3.00;99.90
15262;DHT22;7733;51.554;13.590;2024-01-30T05:12:00;3.00;99.90
15262;DHT22;7733;51.554;13.590;2024-01-30T05:14:26;3.00;99.90
15262;DHT22;7733;51.554;13.590;2024-01-30T05:16:51;2.90;99.90
15262;DHT22;7733;51.554;13.590;2024-01-30T05:19:17;3.00;99.90
15262;DHT22;7733;51.554;13.590;2024-01-30T05:21:43;2.90;99.90
15262;DHT22;7733;51.554;13.590;2024-01-30T05:24:08;3.00;99.90
15262;DHT22;7733;51.554;13.590;2024-01-30T05:26:35;2.90;99.90
15262;DHT22;7733;51.554;13.590;2024-01-30T05:29:02;2.90;99.90
15262;DHT22;7733;51.554;13.590;2024-01-30T05:31:28;2.80;99.90
15262;DHT22;7733;51.554;13.590;2024-01-30T05:33:54;2.90;99.90
15262;DHT22;7733;51.554;13.590;2024-01-30T05:36:20;2.70;99.90
15262;DHT22;7733;51.554;13.590;2024-01-30T05:38:47;2.70;99.90
15262;DHT22;7733;51.554;13.590;2024-01-30T05:41:12;2.70;99.90
15262;DHT22;7733;51.554;13.590;2024-01-30T05:43:38;2.70;99.90
15262;DHT22;7733;51.554;13.590;2024-01-30T05:46:04;2.80;99.90
15262;DHT22;7733;51.554;13.590;2024-01-30T05:48:30;2.70;99.90
15262;DHT22;7733;51.554;13.590;2024-01-30T05:50:56;2.60;99.90
15262;DHT22;7733;51.554;13.590;2024-01-30T05:53:22;2.70;99.90
15262;DHT22;7733;51.554;13.590;2024-01-30T05:55:47;2.60;99.90
15262;DHT22;7733;51.554;13.590;2024-01-30T05:58:13;2.60;99.90
15262;DHT22;7733;51.554;13.590;2024-01-30T06:00:39;2.60;99.90
15262;DHT22;7733;51.554;13.590;2024-01-30T06:03:04;2.70;99.90
15262;DHT22;7733;51.554;13.590;2024-01-30T06:05:30;2.60;99.90
15262;DHT22;7733;51.554;13.590;2024-01-30T06:07:56;2.70;99.90
15262;DHT22;7733;51.554;13.590;2024-01-30T06:10:21;2.60;99.90
15262;DHT22;7733;51.554;13.590;2024-01-30T06:12:47;2.60;99.90
15262;DHT22;7733;51.554;13.590;2024-01-30T06:15:13;2.50;99.90
15262;DHT22;7733;51.554;13.590;2024-01-30T06:17:39;2.50;99.90
15262;DHT22;7733;51.554;13.590;2024-01-30T06:20:06;2.60;99.90
15262;DHT22;7733;51.554;13.590;2024-01-30T06:22:32;2.70;99.90
15262;DHT22;7733;51.554;13.590;2024-01-30T06:24:58;2.70;99.90
15262;DHT22;7733;51.554;13.590;2024-01-30T06:27:24;2.70;99.90
15262;DHT22;7733;51.554;13.590;2024-01-30T06:29:50;2.70;99.90
15262;DHT22;7733;51.554;13.590;2024-01-30T06:32:15;2.70;99.90
15262;DHT22;7733;51.554;13.590;2024-01-30T06:34:41;2.70;99.90
15262;DHT22;7733;51.554;13.590;2024-01-30T06:37:09;2.70;99.90
15262;DHT22;7733;51.554;13.590;2024-01-30T06:39:35;2.70;99.90
15262;DHT22;7733;51.554;13.590;2024-01-30T06:42:01;2.70;99.90
15262;DHT22;7733;51.554;13.590;2024-01-30T06:44:27;2.70;99.90
15262;DHT22;7733;51.554;13.590;2024-01-30T06:46:53;2.70;99.90
15262;DHT22;7733;51.554;13.590;2024-01-30T06:49:19;2.70;99.90
15262;DHT22;7733;51.554;13.590;2024-01-30T06:51:47;2.80;99.90
15262;DHT22;7733;51.554;13.590;2024-01-30T06:54:13;2.70;99.90
15262;DHT22;7733;51.554;13.590;2024-01-30T06:56:39;2.70;99.90
15262;DHT22;7733;51.554;13.590;2024-01-30T06:59:05;2.60;99.90
15262;DHT22;7733;51.554;13.590;2024-01-30T07:01:30;2.70;99.90
15262;DHT22;7733;51.554;13.590;2024-01-30T07:03:57;2.80;99.90
15262;DHT22;7733;51.554;13.590;2024-01-30T07:06:23;2.80;99.90
15262;DHT22;7733;51.554;13.590;2024-01-30T07:08:50;2.70;99.90
15262;DHT22;7733;51.554;13.590;2024-01-30T07:11:22;2.70;99.90
15262;DHT22;7733;51.554;13.590;2024-01-30T07:13:52;2.80;99.90
15262;DHT22;7733;51.554;13.590;2024-01-30T07:16:17;2.90;99.90
15262;DHT22;7733;51.554;13.590;2024-01-30T07:18:44;3.00;99.90
15262;DHT22;7733;51.554;13.590;2024-01-30T07:21:10;3.00;99.90
15262;DHT22;7733;51.554;13.590;2024-01-30T07:23:36;3.10;99.90
15262;DHT22;7733;51.554;13.590;2024-01-30T07:26:05;3.10;99.90
15262;DHT22;7733;51.554;13.590;2024-01-30T07:28:32;3.20;99.90
15262;DHT22;7733;51.554;13.590;2024-01-30T07:30:58;3.20;99.90
15262;DHT22;7733;51.554;13.590;2024-01-30T07:33:24;3.30;99.90
15262;DHT22;7733;51.554;13.590;2024-01-30T07:35:51;3.30;99.90
15262;DHT22;7733;51.554;13.590;2024-01-30T07:38:18;3.40;99.90
15262;DHT22;7733;51.554;13.590;2024-01-30T07:40:44;3.40;99.90
15262;DHT22;7733;51.554;13.590;2024-01-30T07:43:10;3.40;99.90
15262;DHT22;7733;51.554;13.590;2024-01-30T07:45:36;3.40;99.90
15262;DHT22;7733;51.554;13.590;2024-01-30T07:48:03;3.40;99.90
15262;DHT22;7733;51.554;13.590;2024-01-30T07:50:31;3.40;99.90
15262;DHT22;7733;51.554;13.590;2024-01-30T07:52:59;3.40;99.90
15262;DHT22;7733;51.554;13.590;2024-01-30T07:55:25;3.50;99.90
15262;DHT22;7733;51.554;13.590;2024-01-30T07:57:54;3.50;99.90
15262;DHT22;7733;51.554;13.590;2024-01-30T08:00:21;3.50;99.90
15262;DHT22;7733;51.554;13.590;2024-01-30T08:02:47;3.70;99.90
15262;DHT22;7733;51.554;13.590;2024-01-30T08:05:14;3.70;99.90
15262;DHT22;7733;51.554;13.590;2024-01-30T08:07:41;3.70;99.90
15262;DHT22;7733;51.554;13.590;2024-01-30T08:10:08;3.70;99.90
15262;DHT22;7733;51.554;13.590;2024-01-30T08:12:35;3.80;99.90
15262;DHT22;7733;51.554;13.590;2024-01-30T08:15:01;3.80;99.90
15262;DHT22;7733;51.554;13.590;2024-01-30T08:17:26;3.90;99.90
15262;DHT22;7733;51.554;13.590;2024-01-30T08:19:52;4.00;99.90
15262;DHT22;7733;51.554;13.590;2024-01-30T08:22:18;4.20;99.90
15262;DHT22;7733;51.554;13.590;2024-01-30T08:24:43;4.30;99.90
15262;DHT22;7733;51.554;13.590;2024-01-30T08:27:09;4.30;99.90
15262;DHT22;7733;51.554;13.590;2024-01-30T08:29:35;4.30;99.90
15262;DHT22;7733;51.554;13.590;2024-01-30T08:32:01;4.30;99.90
15262;DHT22;7733;51.554;13.590;2024-01-30T08:34:27;4.30;99.90
15262;DHT22;7733;51.554;13.590;2024-01-30T08:36:53;4.40;99.90
15262;DHT22;7733;51.554;13.590;2024-01-30T08:39:19;4.50;99.90
15262;DHT22;7733;51.554;13.590;2024-01-30T08:41:45;4.60;99.90
15262;DHT22;7733;51.554;13.590;2024-01-30T08:44:11;4.70;99.90
15262;DHT22;7733;51.554;13.590;2024-01-30T08:46:37;4.70;99.90
15262;DHT22;7733;51.554;13.590;2024-01-30T08:49:02;4.80;99.90
15262;DHT22;7733;51.554;13.590;2024-01-30T08:51:30;4.80;99.90
15262;DHT22;7733;51.554;13.590;2024-01-30T08:53:56;4.80;99.90
15262;DHT22;7733;51.554;13.590;2024-01-30T08:56:22;4.90;99.90
15262;DHT22;7733;51.554;13.590;2024-01-30T08:58:48;4.90;99.90
15262;DHT22;7733;51.554;13.590;2024-01-30T09:01:14;5.10;99.90
15262;DHT22;7733;51.554;13.590;2024-01-30T09:03:40;5.00;99.90
15262;DHT22;7733;51.554;13.590;2024-01-30T09:06:10;5.10;99.90
15262;DHT22;7733;51.554;13.590;2024-01-30T09:08:36;5.20;99.90
15262;DHT22;7733;51.554;13.590;2024-01-30T09:11:09;5.30;99.90
15262;DHT22;7733;51.554;13.590;2024-01-30T09:13:37;5.20;99.90
15262;DHT22;7733;51.554;13.590;2024-01-30T09:16:03;5.30;99.90
15262;DHT22;7733;51.554;13.590;2024-01-30T09:18:29;5.30;99.90
15262;DHT22;7733;51.554;13.590;2024-01-30T09:20:55;5.30;99.90
15262;DHT22;7733;51.554;13.590;2024-01-30T09:23:21;5.40;99.90
15262;DHT22;7733;51.554;13.590;2024-01-30T09:25:47;5.50;99.90
15262;DHT22;7733;51.554;13.590;2024-01-30T09:28:13;5.60;99.90
15262;DHT22;7733;51.554;13.590;2024-01-30T09:30:39;5.70;99.90
15262;DHT22;7733;51.554;13.590;2024-01-30T09:33:06;5.70;99.90
15262;DHT22;7733;51.554;13.590;2024-01-30T09:35:32;5.70;99.90
15262;DHT22;7733;51.554;13.590;2024-01-30T09:37:58;5.70;99.90
15262;DHT22;7733;51.554;13.590;2024-01-30T09:40:24;5.80;99.90
15262;DHT22;7733;51.554;13.590;2024-01-30T09:42:51;5.80;99.90
15262;DHT22;7733;51.554;13.590;2024-01-30T09:45:20;5.90;99.90
15262;DHT22;7733;51.554;13.590;2024-01-30T09:47:49;5.90;99.90
15262;DHT22;7733;51.554;13.590;2024-01-30T09:50:16;5.90;99.90
15262;DHT22;7733;51.554;13.590;2024-01-30T09:52:45;5.90;99.90
15262;DHT22;7733;51.554;13.590;2024-01-30T09:55:13;5.90;99.90
15262;DHT22;7733;51.554;13.590;2024-01-30T09:57:39;6.00;99.90
15262;DHT22;7733;51.554;13.590;2024-01-30T10:00:06;6.00;99.90
15262;DHT22;7733;51.554;13.590;2024-01-30T10:02:35;6.00;99.90
15262;DHT22;7733;51.554;13.590;2024-01-30T10:05:01;6.00;99.90
15262;DHT22;7733;51.554;13.590;2024-01-30T10:07:27;6.00;99.90
15262;DHT22;7733;51.554;13.590;2024-01-30T10:09:54;6.00;99.90
15262;DHT22;7733;51.554;13.590;2024-01-30T10:12:22;6.10;99.90
15262;DHT22;7733;51.554;13.590;2024-01-30T10:14:48;6.10;99.90
15262;DHT22;7733;51.554;13.590;2024-01-30T10:17:14;6.10;99.90
15262;DHT22;7733;51.554;13.590;2024-01-30T10:19:41;6.20;99.90
15262;DHT22;7733;51.554;13.590;2024-01-30T10:22:07;6.20;99.90
15262;DHT22;7733;51.554;13.590;2024-01-30T10:24:34;6.30;99.90
15262;DHT22;7733;51.554;13.590;2024-01-30T10:27:01;6.30;99.90
15262;DHT22;7733;51.554;13.590;2024-01-30T10:29:27;6.30;99.90
15262;DHT22;7733;51.554;13.590;2024-01-30T10:32:00;6.40;99.90
15262;DHT22;7733;51.554;13.590;2024-01-30T10:34:27;6.40;99.90
15262;DHT22;7733;51.554;13.590;2024-01-30T10:37:13;6.50;99.90
15262;DHT22;7733;51.554;13.590;2024-01-30T10:39:45;6.60;99.90
15262;DHT22;7733;51.554;13.590;2024-01-30T10:42:17;6.60;99.90
15262;DHT22;7733;51.554;13.590;2024-01-30T10:44:56;6.80;99.90
15262;DHT22;7733;51.554;13.590;2024-01-30T10:47:28;6.90;99.90
15262;DHT22;7733;51.554;13.590;2024-01-30T10:49:55;7.00;99.90
15262;DHT22;7733;51.554;13.590;2024-01-30T10:52:23;7.00;99.90
15262;DHT22;7733;51.554;13.590;2024-01-30T10:54:54;7.10;99.90
15262;DHT22;7733;51.554;13.590;2024-01-30T10:57:23;7.20;99.90
15262;DHT22;7733;51.554;13.590;2024-01-30T10:59:51;7.30;99.90
15262;DHT22;7733;51.554;13.590;2024-01-30T11:02:21;7.30;99.90
15262;DHT22;7733;51.554;13.590;2024-01-30T11:04:49;7.40;99.90
15262;DHT22;7733;51.554;13.590;2024-01-30T11:07:18;7.50;99.90
15262;DHT22;7733;51.554;13.590;2024-01-30T11:09:53;7.50;99.90
15262;DHT22;7733;51.554;13.590;2024-01-30T11:12:30;7.60;99.90
15262;DHT22;7733;51.554;13.590;2024-01-30T11:15:04;7.70;99.90
15262;DHT22;7733;51.554;13.590;2024-01-30T11:17:45;7.70;99.90
15262;DHT22;7733;51.554;13.590;2024-01-30T11:20:27;7.80;99.90
15262;DHT22;7733;51.554;13.590;2024-01-30T11:22:58;7.90;99.90
15262;DHT22;7733;51.554;13.590;2024-01-30T11:25:27;8.00;99.90
15262;DHT22;7733;51.554;13.590;2024-01-30T11:27:55;8.10;99.90
15262;DHT22;7733;51.554;13.590;2024-01-30T11:33:14;8.30;99.90
15262;DHT22;7733;51.554;13.590;2024-01-30T11:35:44;8.40;99.90
15262;DHT22;7733;51.554;13.590;2024-01-30T11:38:19;8.50;99.90
15262;DHT22;7733;51.554;13.590;2024-01-30T11:40:45;8.70;99.90
15262;DHT22;7733;51.554;13.590;2024-01-30T11:43:11;8.70;99.90
15262;DHT22;7733;51.554;13.590;2024-01-30T11:45:37;8.70;99.90
15262;DHT22;7733;51.554;13.590;2024-01-30T11:48:05;8.70;99.90
15262;DHT22;7733;51.554;13.590;2024-01-30T11:50:33;8.70;99.90
15262;DHT22;7733;51.554;13.590;2024-01-30T11:53:00;8.70;99.90
15262;DHT22;7733;51.554;13.590;2024-01-30T11:55:26;8.70;99.90
15262;DHT22;7733;51.554;13.590;2024-01-30T11:57:57;8.70;99.90
15262;DHT22;7733;51.554;13.590;2024-01-30T12:00:24;8.60;99.90
15262;DHT22;7733;51.554;13.590;2024-01-30T12:02:51;8.60;99.90
15262;DHT22;7733;51.554;13.590;2024-01-30T12:05:21;8.70;99.90
15262;DHT22;7733;51.554;13.590;2024-01-30T12:07:48;8.70;99.90
15262;DHT22;7733;51.554;13.590;2024-01-30T12:10:14;8.70;99.90
15262;DHT22;7733;51.554;13.590;2024-01-30T12:12:46;8.80;99.90
15262;DHT22;7733;51.554;13.590;2024-01-30T12:15:13;8.70;99.90
15262;DHT22;7733;51.554;13.590;2024-01-30T12:17:40;8.70;99.90
15262;DHT22;7733;51.554;13.590;2024-01-30T12:20:13;8.70;99.90
15262;DHT22;7733;51.554;13.590;2024-01-30T12:22:42;8.70;99.90
15262;DHT22;7733;51.554;13.590;2024-01-30T12:25:14;8.70;99.90
15262;DHT22;7733;51.554;13.590;2024-01-30T12:27:45;8.80;99.90
15262;DHT22;7733;51.554;13.590;2024-01-30T12:30:13;8.70;99.90
15262;DHT22;7733;51.554;13.590;2024-01-30T12:32:41;8.70;99.90
15262;DHT22;7733;51.554;13.590;2024-01-30T12:35:10;8.70;99.90
15262;DHT22;7733;51.554;13.590;2024-01-30T12:37:37;8.80;99.90
15262;DHT22;7733;51.554;13.590;2024-01-30T12:40:04;8.80;99.90
15262;DHT22;7733;51.554;13.590;2024-01-30T12:42:31;8.70;99.90
15262;DHT22;7733;51.554;13.590;2024-01-30T12:45:00;8.80;99.90
15262;DHT22;7733;51.554;13.590;2024-01-30T12:47:28;8.80;99.90
15262;DHT22;7733;51.554;13.590;2024-01-30T12:49:53;8.70;99.90
15262;DHT22;7733;51.554;13.590;2024-01-30T12:52:20;8.80;99.90
15262;DHT22;7733;51.554;13.590;2024-01-30T12:54:49;8.70;99.90
15262;DHT22;7733;51.554;13.590;2024-01-30T12:57:16;8.70;99.90
15262;DHT22;7733;51.554;13.590;2024-01-30T12:59:45;8.80;99.90
15262;DHT22;7733;51.554;13.590;2024-01-30T13:02:12;8.80;99.90
15262;DHT22;7733;51.554;13.590;2024-01-30T13:04:39;8.90;99.90
15262;DHT22;7733;51.554;13.590;2024-01-30T13:07:05;8.80;99.90
15262;DHT22;7733;51.554;13.590;2024-01-30T13:09:31;8.80;99.90
15262;DHT22;7733;51.554;13.590;2024-01-30T13:11:58;8.90;99.90
15262;DHT22;7733;51.554;13.590;2024-01-30T13:14:24;8.90;99.90
15262;DHT22;7733;51.554;13.590;2024-01-30T13:16:50;8.90;99.90
15262;DHT22;7733;51.554;13.590;2024-01-30T13:19:16;8.90;99.90
15262;DHT22;7733;51.554;13.590;2024-01-30T13:21:43;9.00;99.90
15262;DHT22;7733;51.554;13.590;2024-01-30T13:24:08;8.90;99.90
15262;DHT22;7733;51.554;13.590;2024-01-30T13:26:35;8.90;99.90
15262;DHT22;7733;51.554;13.590;2024-01-30T13:29:01;8.90;99.90
15262;DHT22;7733;51.554;13.590;2024-01-30T13:31:29;8.80;99.90
15262;DHT22;7733;51.554;13.590;2024-01-30T13:33:55;8.80;99.90
15262;DHT22;7733;51.554;13.590;2024-01-30T13:36:21;8.80;99.90
15262;DHT22;7733;51.554;13.590;2024-01-30T13:38:48;8.70;99.90
15262;DHT22;7733;51.554;13.590;2024-01-30T13:41:14;8.80;99.90
15262;DHT22;7733;51.554;13.590;2024-01-30T13:43:39;8.70;99.90
15262;DHT22;7733;51.554;13.590;2024-01-30T13:46:05;8.70;99.90
15262;DHT22;7733;51.554;13.590;2024-01-30T13:48:33;8.70;99.90
15262;DHT22;7733;51.554;13.590;2024-01-30T13:50:59;8.90;99.90
15262;DHT22;7733;51.554;13.590;2024-01-30T13:53:24;9.00;99.90
15262;DHT22;7733;51.554;13.590;2024-01-30T13:55:50;9.10;99.90
15262;DHT22;7733;51.554;13.590;2024-01-30T13:58:16;9.00;99.90
15262;DHT22;7733;51.554;13.590;2024-01-30T14:00:42;8.90;99.90
15262;DHT22;7733;51.554;13.590;2024-01-30T14:03:07;8.80;99.90
15262;DHT22;7733;51.554;13.590;2024-01-30T14:05:33;8.80;99.90
15262;DHT22;7733;51.554;13.590;2024-01-30T14:08:00;8.80;99.90
15262;DHT22;7733;51.554;13.590;2024-01-30T14:10:26;8.70;99.90
15262;DHT22;7733;51.554;13.590;2024-01-30T14:12:52;8.70;99.90
15262;DHT22;7733;51.554;13.590;2024-01-30T14:15:18;8.70;99.90
15262;DHT22;7733;51.554;13.590;2024-01-30T14:17:44;8.60;99.90
15262;DHT22;7733;51.554;13.590;2024-01-30T14:20:14;8.60;99.90
15262;DHT22;7733;51.554;13.590;2024-01-30T14:22:43;8.50;99.90
15262;DHT22;7733;51.554;13.590;2024-01-30T14:25:09;8.40;99.90
15262;DHT22;7733;51.554;13.590;2024-01-30T14:27:36;8.50;99.90
15262;DHT22;7733;51.554;13.590;2024-01-30T14:30:02;8.50;99.90
15262;DHT22;7733;51.554;13.590;2024-01-30T14:32:28;8.40;99.90
15262;DHT22;7733;51.554;13.590;2024-01-30T14:34:54;8.40;99.90
15262;DHT22;7733;51.554;13.590;2024-01-30T14:37:22;8.40;99.90
15262;DHT22;7733;51.554;13.590;2024-01-30T14:39:49;8.30;99.90
15262;DHT22;7733;51.554;13.590;2024-01-30T14:42:15;8.40;99.90
15262;DHT22;7733;51.554;13.590;2024-01-30T14:44:41;8.30;99.90
15262;DHT22;7733;51.554;13.590;2024-01-30T14:47:07;8.20;99.90
15262;DHT22;7733;51.554;13.590;2024-01-30T14:49:33;8.20;99.90
15262;DHT22;7733;51.554;13.590;2024-01-30T14:51:59;8.20;99.90
15262;DHT22;7733;51.554;13.590;2024-01-30T14:54:26;8.00;99.90
15262;DHT22;7733;51.554;13.590;2024-01-30T14:56:53;7.90;99.90
15262;DHT22;7733;51.554;13.590;2024-01-30T14:59:19;7.90;99.90
15262;DHT22;7733;51.554;13.590;2024-01-30T15:01:45;7.80;99.90
15262;DHT22;7733;51.554;13.590;2024-01-30T15:04:11;7.90;99.90
15262;DHT22;7733;51.554;13.590;2024-01-30T15:06:37;7.80;99.90
15262;DHT22;7733;51.554;13.590;2024-01-30T15:09:03;7.70;99.90
15262;DHT22;7733;51.554;13.590;2024-01-30T15:11:29;7.80;99.90
15262;DHT22;7733;51.554;13.590;2024-01-30T15:13:56;7.70;99.90
15262;DHT22;7733;51.554;13.590;2024-01-30T15:16:21;7.60;99.90
15262;DHT22;7733;51.554;13.590;2024-01-30T15:18:47;7.60;99.90
15262;DHT22;7733;51.554;13.590;2024-01-30T15:21:13;7.50;99.90
15262;DHT22;7733;51.554;13.590;2024-01-30T15:23:39;7.60;99.90
15262;DHT22;7733;51.554;13.590;2024-01-30T15:26:04;7.70;99.90
15262;DHT22;7733;51.554;13.590;2024-01-30T15:28:35;7.80;99.90
15262;DHT22;7733;51.554;13.590;2024-01-30T15:31:03;7.60;99.90
15262;DHT22;7733;51.554;13.590;2024-01-30T15:33:29;7.40;99.90
15262;DHT22;7733;51.554;13.590;2024-01-30T15:35:55;7.40;99.90
15262;DHT22;7733;51.554;13.590;2024-01-30T15:38:21;7.50;99.90
15262;DHT22;7733;51.554;13.590;2024-01-30T15:40:47;7.50;99.90
15262;DHT22;7733;51.554;13.590;2024-01-30T15:43:12;7.50;99.90
15262;DHT22;7733;51.554;13.590;2024-01-30T15:45:38;7.50;99.90